createdAt,value
2022-12-20T00:03:36.426Z,2.80
2022-12-20T00:08:39.476Z,1.90
2022-12-20T00:13:41.601Z,2.20
2022-12-20T00:18:45.085Z,2.58
2022-12-20T00:23:47.174Z,2.30
2022-12-20T00:28:49.346Z,2.10
2022-12-20T00:33:53.422Z,2.13
2022-12-20T00:38:57.344Z,1.67
2022-12-20T00:44:00.151Z,2.10
2022-12-20T00:49:02.767Z,2.22
2022-12-20T00:54:04.973Z,1.70
2022-12-20T00:59:07.063Z,1.52
2022-12-20T01:04:10.316Z,2.17
2022-12-20T01:09:12.676Z,1.77
2022-12-20T01:14:16.000Z,2.38
2022-12-20T01:19:19.468Z,2.47
2022-12-20T01:24:21.753Z,1.95
2022-12-20T01:29:23.983Z,1.77
2022-12-20T01:34:26.199Z,1.40
2022-12-20T01:39:28.604Z,1.45
2022-12-20T01:44:30.711Z,2.13
2022-12-20T01:49:44.433Z,1.65
2022-12-20T01:54:57.437Z,1.83
2022-12-20T01:59:59.681Z,1.92
2022-12-20T02:05:02.653Z,1.95
2022-12-20T02:10:07.710Z,1.65
2022-12-20T02:15:58.183Z,1.48
2022-12-20T02:21:24.463Z,2.00
2022-12-20T02:26:59.992Z,1.42
2022-12-20T02:32:37.221Z,1.85
2022-12-20T02:37:53.690Z,1.75
2022-12-20T02:43:03.338Z,2.03
2022-12-20T02:48:09.922Z,2.15
2022-12-20T02:53:14.284Z,2.00
2022-12-20T03:03:26.454Z,1.80
2022-12-20T03:08:29.037Z,2.72
2022-12-20T03:13:31.234Z,2.15
2022-12-20T03:18:38.637Z,2.40
2022-12-20T03:23:40.869Z,2.20
2022-12-20T03:28:43.198Z,2.03
2022-12-20T03:33:48.957Z,1.63
2022-12-20T03:38:52.334Z,1.48
2022-12-20T03:43:54.699Z,1.40
2022-12-20T03:48:57.853Z,1.08
2022-12-20T03:54:00.436Z,1.30
2022-12-20T03:59:20.967Z,1.35
2022-12-20T04:04:24.978Z,0.98
2022-12-20T04:09:27.148Z,1.20
2022-12-20T04:14:36.272Z,1.55
2022-12-20T04:19:39.206Z,1.10
2022-12-20T04:24:43.175Z,1.27
2022-12-20T04:29:58.839Z,1.00
2022-12-20T04:35:01.618Z,1.40
2022-12-20T04:40:04.679Z,1.20
2022-12-20T04:45:29.321Z,1.10
2022-12-20T04:50:31.669Z,1.63
2022-12-20T04:55:38.755Z,1.08
2022-12-20T05:00:41.307Z,1.15
2022-12-20T05:05:56.805Z,1.45
2022-12-20T05:11:00.141Z,1.20
2022-12-20T05:16:04.083Z,1.23
2022-12-20T05:21:27.917Z,1.80
2022-12-20T05:26:36.466Z,1.10
2022-12-20T05:31:39.502Z,1.40
2022-12-20T05:36:42.128Z,1.55
2022-12-20T05:41:44.434Z,1.30
2022-12-20T05:46:47.005Z,1.70
2022-12-20T05:51:55.037Z,1.15
2022-12-20T05:56:59.781Z,1.50
2022-12-20T06:02:10.847Z,1.65
2022-12-20T06:07:14.152Z,1.75
2022-12-20T06:12:17.538Z,1.42
2022-12-20T06:17:21.986Z,1.33
2022-12-20T06:22:26.362Z,1.13
2022-12-20T06:27:31.873Z,1.10
2022-12-20T06:32:43.094Z,1.35
2022-12-20T06:37:46.071Z,0.88
2022-12-20T06:42:50.501Z,0.90
2022-12-20T06:47:55.100Z,0.80
2022-12-20T06:52:58.621Z,0.90
2022-12-20T06:58:01.003Z,0.80
2022-12-20T07:03:03.347Z,0.85
2022-12-20T07:08:05.879Z,1.20
2022-12-20T07:13:09.265Z,0.70
2022-12-20T07:18:11.564Z,0.88
2022-12-20T07:23:13.637Z,0.80
2022-12-20T07:28:15.778Z,1.02
2022-12-20T07:33:18.007Z,0.82
2022-12-20T07:38:20.090Z,1.00
2022-12-20T07:43:22.240Z,1.02
2022-12-20T07:48:24.706Z,1.33
2022-12-20T07:53:28.925Z,1.70
2022-12-20T07:58:31.799Z,1.45
2022-12-20T08:03:44.296Z,1.80
2022-12-20T08:08:53.084Z,1.38
2022-12-20T08:13:58.012Z,2.15
2022-12-20T08:19:00.946Z,1.60
2022-12-20T08:24:03.173Z,1.70
2022-12-20T08:29:05.316Z,1.63
2022-12-20T08:34:07.438Z,2.00
2022-12-20T08:39:11.664Z,1.80
2022-12-20T08:44:14.013Z,1.50
2022-12-20T08:49:16.131Z,1.33
2022-12-20T08:54:18.359Z,1.55
2022-12-20T08:59:20.544Z,2.30
2022-12-20T09:04:22.767Z,2.28
2022-12-20T09:09:25.009Z,1.75
2022-12-20T09:14:27.115Z,1.83
2022-12-20T09:19:29.356Z,2.33
2022-12-20T09:24:31.605Z,2.20
2022-12-20T09:29:35.676Z,2.47
2022-12-20T09:34:38.321Z,3.00
2022-12-20T09:39:40.504Z,2.88
2022-12-20T09:44:43.471Z,3.90
2022-12-20T09:49:49.378Z,3.15
2022-12-20T10:00:17.389Z,3.78
2022-12-20T10:05:47.916Z,3.00
2022-12-20T10:10:55.188Z,2.40
2022-12-20T10:16:26.641Z,3.25
2022-12-20T10:21:47.640Z,2.53
2022-12-20T10:26:51.286Z,2.70
2022-12-20T10:32:00.080Z,2.90
2022-12-20T10:37:18.561Z,2.60
2022-12-20T10:42:34.927Z,1.95
2022-12-20T10:47:41.939Z,2.22
2022-12-20T10:52:45.646Z,1.95
2022-12-20T10:57:47.861Z,1.90
2022-12-20T11:03:12.068Z,1.60
2022-12-20T11:08:36.218Z,1.67
2022-12-20T11:13:41.059Z,1.75
2022-12-20T11:18:55.028Z,1.67
2022-12-20T11:24:14.418Z,1.80
2022-12-20T11:29:28.684Z,1.70
2022-12-20T11:34:44.965Z,1.60
2022-12-20T11:40:09.095Z,1.45
2022-12-20T11:45:19.846Z,1.75
2022-12-20T11:50:41.517Z,2.00
2022-12-20T11:55:47.066Z,1.42
2022-12-20T12:01:05.291Z,2.00
2022-12-20T12:06:10.538Z,2.53
2022-12-20T12:16:51.404Z,1.30
2022-12-20T12:22:02.108Z,1.80
2022-12-20T12:27:04.204Z,1.30
2022-12-20T12:32:19.173Z,1.50
2022-12-20T12:37:53.293Z,1.20
2022-12-20T12:43:10.426Z,1.13
2022-12-20T12:48:20.821Z,1.88
2022-12-20T12:53:35.624Z,1.20
2022-12-20T12:58:41.489Z,1.50
2022-12-20T13:03:52.725Z,1.55
2022-12-20T13:09:00.906Z,2.13
2022-12-20T13:14:13.074Z,1.63
2022-12-20T13:19:27.443Z,1.45
2022-12-20T13:24:38.503Z,2.67
2022-12-20T13:30:13.493Z,1.23
2022-12-20T13:35:25.011Z,1.48
2022-12-20T13:41:00.270Z,1.48
2022-12-20T13:46:14.827Z,1.40
2022-12-20T13:51:25.757Z,1.50
2022-12-20T13:56:27.881Z,1.60
2022-12-20T14:01:31.512Z,1.20
2022-12-20T14:06:35.073Z,1.60
2022-12-20T14:11:47.277Z,1.48
2022-12-20T14:16:49.762Z,1.80
2022-12-20T14:21:52.404Z,1.80
2022-12-20T14:26:55.651Z,2.20
2022-12-20T14:31:58.048Z,2.75
2022-12-20T14:37:27.219Z,1.92
2022-12-20T14:42:37.812Z,1.92
2022-12-20T14:47:49.715Z,1.70
2022-12-20T14:52:51.937Z,1.85
2022-12-20T14:57:56.317Z,1.45
2022-12-20T15:03:12.942Z,1.40
2022-12-20T15:08:24.243Z,1.95
2022-12-20T15:13:39.058Z,1.58
2022-12-20T15:18:41.486Z,1.30
2022-12-20T15:23:49.499Z,1.38
2022-12-20T15:28:52.240Z,1.42
2022-12-20T15:33:57.473Z,1.50
2022-12-20T15:39:15.835Z,1.55
2022-12-20T15:44:22.088Z,1.13
2022-12-20T15:49:27.620Z,1.38
2022-12-20T15:54:32.950Z,2.30
2022-12-20T16:04:57.831Z,2.17
2022-12-20T16:10:00.001Z,1.90
2022-12-20T16:15:02.177Z,1.50
2022-12-20T16:20:04.959Z,1.30
2022-12-20T16:25:11.111Z,1.90
2022-12-20T16:30:15.343Z,2.90
2022-12-20T16:35:28.710Z,2.50
2022-12-20T16:40:32.955Z,3.20
2022-12-20T16:45:35.095Z,2.65
2022-12-20T16:50:41.643Z,2.22
2022-12-20T16:55:43.809Z,2.20
2022-12-20T17:00:45.928Z,2.00
2022-12-20T17:05:48.163Z,1.52
2022-12-20T17:10:51.850Z,1.88
2022-12-20T17:15:54.048Z,2.13
2022-12-20T17:20:56.174Z,2.50
2022-12-20T17:25:58.235Z,2.35
2022-12-20T17:31:07.531Z,2.35
2022-12-20T17:36:10.419Z,2.72
2022-12-20T17:41:24.465Z,2.53
2022-12-20T17:46:27.006Z,2.50
2022-12-20T17:51:30.533Z,2.85
2022-12-20T17:56:36.020Z,3.00
2022-12-20T18:01:38.219Z,2.70
2022-12-20T18:06:42.298Z,2.17
2022-12-20T18:11:44.895Z,2.63
2022-12-20T18:16:47.578Z,2.20
2022-12-20T18:21:49.703Z,2.53
2022-12-20T18:26:51.892Z,3.00
2022-12-20T18:31:54.031Z,4.22
2022-12-20T18:36:56.116Z,5.47
2022-12-20T18:41:58.188Z,6.22
2022-12-20T18:47:00.397Z,7.38
2022-12-20T18:52:03.175Z,10.25
2022-12-20T18:57:06.599Z,14.70
2022-12-20T19:02:12.326Z,11.85
2022-12-20T19:12:17.635Z,8.48
2022-12-20T19:17:19.729Z,9.85
2022-12-20T19:22:21.970Z,13.18
2022-12-20T19:27:24.020Z,13.00
2022-12-20T19:32:26.057Z,11.93
2022-12-20T19:37:35.326Z,7.38
2022-12-20T19:42:42.276Z,7.45
2022-12-20T19:47:44.340Z,5.77
2022-12-20T19:52:46.511Z,5.43
2022-12-20T19:57:48.522Z,3.30
2022-12-20T20:02:50.694Z,3.42
2022-12-20T20:07:53.040Z,3.10
2022-12-20T20:12:55.216Z,3.00
2022-12-20T20:17:57.291Z,4.10
2022-12-20T20:22:59.360Z,5.00
2022-12-20T20:28:05.349Z,4.85
2022-12-20T20:38:11.947Z,4.45
2022-12-20T20:43:14.078Z,8.32
2022-12-20T20:48:16.788Z,8.48
2022-12-20T20:53:19.267Z,6.13
2022-12-20T20:58:21.481Z,6.05
2022-12-20T21:03:23.572Z,4.65
2022-12-20T21:08:26.004Z,4.25
2022-12-20T21:13:28.113Z,4.05
2022-12-20T21:18:30.208Z,4.22
2022-12-20T21:23:32.262Z,3.10
2022-12-20T21:28:34.853Z,3.20
2022-12-20T21:33:38.048Z,2.97
2022-12-20T21:38:40.778Z,2.28
2022-12-20T21:43:43.152Z,2.65
2022-12-20T21:48:45.516Z,3.70
2022-12-20T21:53:50.490Z,3.20
2022-12-20T21:58:52.687Z,2.63
2022-12-20T22:04:00.572Z,2.78
2022-12-20T22:09:08.988Z,2.45
2022-12-20T22:14:13.195Z,2.00
2022-12-20T22:19:15.617Z,1.80
2022-12-20T22:24:17.741Z,2.25
2022-12-20T22:29:20.693Z,2.30
2022-12-20T22:34:22.831Z,2.67
2022-12-20T22:39:24.905Z,2.35
2022-12-20T22:44:26.985Z,2.53
2022-12-20T22:49:29.334Z,2.78
2022-12-20T22:54:31.573Z,2.40
2022-12-20T22:59:34.765Z,2.40
2022-12-20T23:04:36.796Z,3.20
2022-12-20T23:09:38.933Z,2.70
2022-12-20T23:15:03.965Z,2.50
2022-12-20T23:20:25.958Z,2.20
2022-12-20T23:25:28.660Z,2.00
2022-12-20T23:30:30.849Z,1.73
2022-12-20T23:35:33.054Z,2.13
2022-12-20T23:40:35.139Z,1.77
2022-12-20T23:45:37.224Z,2.30
2022-12-20T23:50:39.283Z,2.25
2022-12-20T23:55:41.427Z,2.13
